CFG9CM EDDF-LDSP
Flight info
| Callsign | CFG9CM |
|---|---|
| Flight time | 1h 17m |
| Altitude | 33000 |
| Route | CINDY Z74 LAMPU DCT NOMBO Y161 MAH DCT VAVOR DCT RADIZ DCT GIMIX DCT ALIVO DCT NUPSO |
| Aircraft | A320/M-SDE3FGHIJ1LORVWXYZ/S |
Departure
| Time | 2026-05-07 17:57 |
|---|---|
| Airport | Frankfurt Main Airport (EDDF) |
Arrival
| Time | 2026-05-07 19:14 |
|---|---|
| Airport | Split Saint Jerome Airport (LDSP) |
| Time | Latitude | Longitude | Altitude | Speed | Heading |
|---|---|---|---|---|---|
| 2026-05-07 17:30 | 50.04380 | 8.56970 | 360 ft | 0 kts | 160° |
| 2026-05-07 17:50 | 50.04345 | 8.56990 | 361 ft | 11 kts | 160° |
| 2026-05-07 17:50 | 50.04284 | 8.56941 | 359 ft | 12 kts | 243° |
| 2026-05-07 17:50 | 50.04288 | 8.56837 | 363 ft | 9 kts | 310° |
| 2026-05-07 17:50 | 50.04339 | 8.56826 | 360 ft | 7 kts | 10° |
| 2026-05-07 17:51 | 50.04397 | 8.56843 | 364 ft | 10 kts | 11° |
| 2026-05-07 17:51 | 50.04442 | 8.56794 | 362 ft | 9 kts | 271° |
| 2026-05-07 17:51 | 50.04417 | 8.56684 | 360 ft | 14 kts | 250° |
| 2026-05-07 17:51 | 50.04378 | 8.56519 | 362 ft | 18 kts | 249° |
| 2026-05-07 17:52 | 50.04330 | 8.56318 | 358 ft | 22 kts | 250° |
| 2026-05-07 17:52 | 50.04274 | 8.56087 | 357 ft | 24 kts | 249° |
| 2026-05-07 17:52 | 50.04215 | 8.55837 | 355 ft | 26 kts | 250° |
| 2026-05-07 17:52 | 50.04153 | 8.55578 | 355 ft | 26 kts | 250° |
| 2026-05-07 17:53 | 50.04091 | 8.55318 | 356 ft | 25 kts | 250° |
| 2026-05-07 17:53 | 50.04029 | 8.55056 | 356 ft | 26 kts | 250° |
| 2026-05-07 17:53 | 50.03967 | 8.54800 | 356 ft | 26 kts | 249° |
| 2026-05-07 17:53 | 50.03905 | 8.54541 | 355 ft | 26 kts | 251° |
| 2026-05-07 17:54 | 50.03832 | 8.54308 | 350 ft | 24 kts | 233° |
| 2026-05-07 17:54 | 50.03762 | 8.54064 | 351 ft | 26 kts | 249° |
| 2026-05-07 17:54 | 50.03698 | 8.53797 | 345 ft | 24 kts | 248° |
| 2026-05-07 17:54 | 50.03637 | 8.53549 | 340 ft | 26 kts | 249° |
| 2026-05-07 17:55 | 50.03574 | 8.53282 | 337 ft | 27 kts | 251° |
| 2026-05-07 17:55 | 50.03517 | 8.53048 | 336 ft | 23 kts | 250° |
| 2026-05-07 17:55 | 50.03453 | 8.52804 | 336 ft | 25 kts | 246° |
| 2026-05-07 17:55 | 50.03395 | 8.52619 | 334 ft | 14 kts | 224° |
| 2026-05-07 17:56 | 50.03300 | 8.52594 | 332 ft | 15 kts | 180° |
| 2026-05-07 17:56 | 50.03103 | 8.52595 | 335 ft | 59 kts | 179° |
| 2026-05-07 17:56 | 50.02469 | 8.52604 | 335 ft | 122 kts | 180° |
| 2026-05-07 17:56 | 50.01441 | 8.52615 | 337 ft | 172 kts | 179° |
| 2026-05-07 17:57 | 50.00221 | 8.52649 | 861 ft | 174 kts | 179° |
| 2026-05-07 17:57 | 49.99419 | 8.52665 | 1328 ft | 174 kts | 179° |
| 2026-05-07 17:57 | 49.97732 | 8.52745 | 1968 ft | 194 kts | 166° |
| 2026-05-07 17:57 | 49.96465 | 8.53685 | 2286 ft | 214 kts | 137° |
| 2026-05-07 17:58 | 49.95567 | 8.55636 | 2726 ft | 229 kts | 117° |
| 2026-05-07 17:58 | 49.94789 | 8.57822 | 3523 ft | 233 kts | 118° |
| 2026-05-07 17:58 | 49.94142 | 8.60135 | 4266 ft | 236 kts | 101° |
| 2026-05-07 17:58 | 49.93951 | 8.62782 | 4666 ft | 259 kts | 92° |
| 2026-05-07 17:59 | 49.93834 | 8.65651 | 5300 ft | 271 kts | 95° |
| 2026-05-07 17:59 | 49.93358 | 8.68504 | 6085 ft | 278 kts | 114° |
| 2026-05-07 17:59 | 49.92283 | 8.71006 | 6888 ft | 282 kts | 135° |
| 2026-05-07 17:59 | 49.90749 | 8.72907 | 7677 ft | 284 kts | 146° |
| 2026-05-07 18:00 | 49.89159 | 8.74765 | 8486 ft | 289 kts | 138° |
| 2026-05-07 18:00 | 49.87844 | 8.77143 | 9282 ft | 293 kts | 123° |
| 2026-05-07 18:00 | 49.86814 | 8.79893 | 10076 ft | 297 kts | 123° |
| 2026-05-07 18:00 | 49.85546 | 8.82497 | 10507 ft | 313 kts | 131° |
| 2026-05-07 18:01 | 49.84003 | 8.85055 | 10705 ft | 336 kts | 136° |
| 2026-05-07 18:01 | 49.82294 | 8.87662 | 11047 ft | 352 kts | 137° |
| 2026-05-07 18:01 | 49.80526 | 8.90332 | 11701 ft | 357 kts | 136° |
| 2026-05-07 18:01 | 49.78756 | 8.93062 | 12413 ft | 361 kts | 135° |
| 2026-05-07 18:02 | 49.75225 | 8.98700 | 13799 ft | 368 kts | 134° |
| 2026-05-07 18:02 | 49.73456 | 9.01589 | 14409 ft | 372 kts | 134° |
| 2026-05-07 18:02 | 49.71697 | 9.04480 | 15004 ft | 376 kts | 134° |
| 2026-05-07 18:03 | 49.69894 | 9.07443 | 15574 ft | 380 kts | 134° |
| 2026-05-07 18:03 | 49.68071 | 9.10430 | 16148 ft | 384 kts | 134° |
| 2026-05-07 18:03 | 49.66254 | 9.13483 | 16728 ft | 388 kts | 133° |
| 2026-05-07 18:03 | 49.64465 | 9.16632 | 17311 ft | 392 kts | 132° |
| 2026-05-07 18:04 | 49.62684 | 9.19848 | 17900 ft | 395 kts | 131° |
| 2026-05-07 18:04 | 49.60900 | 9.23104 | 18467 ft | 399 kts | 131° |
| 2026-05-07 18:04 | 49.59100 | 9.26379 | 18968 ft | 402 kts | 131° |
| 2026-05-07 18:04 | 49.57279 | 9.29667 | 19515 ft | 405 kts | 132° |
| 2026-05-07 18:05 | 49.55437 | 9.32966 | 20047 ft | 407 kts | 132° |
| 2026-05-07 18:05 | 49.53575 | 9.36275 | 20580 ft | 410 kts | 132° |
| 2026-05-07 18:05 | 49.51697 | 9.39592 | 21091 ft | 413 kts | 132° |
| 2026-05-07 18:05 | 49.49800 | 9.42931 | 21594 ft | 416 kts | 132° |
| 2026-05-07 18:06 | 49.47887 | 9.46294 | 22070 ft | 419 kts | 132° |
| 2026-05-07 18:06 | 49.45988 | 9.49633 | 22530 ft | 422 kts | 132° |
| 2026-05-07 18:06 | 49.44026 | 9.53084 | 23004 ft | 425 kts | 132° |
| 2026-05-07 18:06 | 49.42076 | 9.56509 | 23464 ft | 427 kts | 132° |
| 2026-05-07 18:07 | 49.40136 | 9.59909 | 23860 ft | 430 kts | 132° |
| 2026-05-07 18:07 | 49.38157 | 9.63363 | 24235 ft | 432 kts | 132° |
| 2026-05-07 18:07 | 49.36167 | 9.66836 | 24599 ft | 434 kts | 132° |
| 2026-05-07 18:07 | 49.34167 | 9.70328 | 24950 ft | 436 kts | 132° |
| 2026-05-07 18:08 | 49.32159 | 9.73838 | 25262 ft | 440 kts | 133° |
| 2026-05-07 18:08 | 49.30134 | 9.77371 | 25573 ft | 443 kts | 133° |
| 2026-05-07 18:08 | 49.28094 | 9.80925 | 25906 ft | 445 kts | 133° |
| 2026-05-07 18:08 | 49.26048 | 9.84488 | 26257 ft | 447 kts | 133° |
| 2026-05-07 18:09 | 49.23987 | 9.88063 | 26609 ft | 448 kts | 133° |
| 2026-05-07 18:09 | 49.21917 | 9.91640 | 26945 ft | 450 kts | 133° |
| 2026-05-07 18:09 | 49.19836 | 9.95235 | 27273 ft | 452 kts | 133° |
| 2026-05-07 18:09 | 49.17752 | 9.98834 | 27590 ft | 453 kts | 133° |
| 2026-05-07 18:10 | 49.15657 | 10.02451 | 27898 ft | 455 kts | 133° |
| 2026-05-07 18:10 | 49.13547 | 10.06086 | 28196 ft | 457 kts | 133° |
| 2026-05-07 18:10 | 49.11437 | 10.09719 | 28486 ft | 459 kts | 133° |
| 2026-05-07 18:10 | 49.09313 | 10.13370 | 28776 ft | 460 kts | 133° |
| 2026-05-07 18:11 | 49.07186 | 10.17027 | 29038 ft | 462 kts | 133° |
| 2026-05-07 18:11 | 49.05770 | 10.19457 | 29185 ft | 464 kts | 133° |
| 2026-05-07 18:11 | 49.02894 | 10.24378 | 29546 ft | 466 kts | 133° |
| 2026-05-07 18:11 | 49.00732 | 10.28066 | 29804 ft | 467 kts | 133° |
| 2026-05-07 18:12 | 48.98564 | 10.31764 | 30062 ft | 468 kts | 133° |
| 2026-05-07 18:12 | 48.96406 | 10.35449 | 30355 ft | 467 kts | 133° |
| 2026-05-07 18:12 | 48.94242 | 10.39142 | 30630 ft | 467 kts | 133° |
| 2026-05-07 18:12 | 48.92067 | 10.42843 | 30897 ft | 466 kts | 133° |
| 2026-05-07 18:13 | 48.89942 | 10.46441 | 31146 ft | 467 kts | 133° |
| 2026-05-07 18:13 | 48.87739 | 10.50159 | 31391 ft | 467 kts | 133° |
| 2026-05-07 18:13 | 48.85598 | 10.53773 | 31637 ft | 467 kts | 133° |
| 2026-05-07 18:13 | 48.83396 | 10.57491 | 31900 ft | 467 kts | 134° |
| 2026-05-07 18:14 | 48.81228 | 10.61149 | 32150 ft | 467 kts | 134° |
| 2026-05-07 18:14 | 48.79084 | 10.64764 | 32384 ft | 467 kts | 134° |
| 2026-05-07 18:14 | 48.76906 | 10.68432 | 32624 ft | 468 kts | 134° |
| 2026-05-07 18:14 | 48.74726 | 10.72095 | 32863 ft | 468 kts | 134° |
| 2026-05-07 18:15 | 48.72544 | 10.75753 | 33041 ft | 469 kts | 134° |
| 2026-05-07 18:15 | 48.68182 | 10.83049 | 33077 ft | 467 kts | 134° |
| 2026-05-07 18:16 | 48.63817 | 10.90333 | 33059 ft | 467 kts | 134° |
| 2026-05-07 18:16 | 48.59460 | 10.97609 | 33059 ft | 467 kts | 134° |
| 2026-05-07 18:17 | 48.55084 | 11.04872 | 33051 ft | 467 kts | 134° |
| 2026-05-07 18:17 | 48.50699 | 11.12133 | 33047 ft | 468 kts | 134° |
| 2026-05-07 18:18 | 48.46317 | 11.19380 | 33037 ft | 468 kts | 135° |
| 2026-05-07 18:18 | 48.41927 | 11.26611 | 33037 ft | 467 kts | 135° |
| 2026-05-07 18:19 | 48.37530 | 11.33819 | 33040 ft | 467 kts | 135° |
| 2026-05-07 18:19 | 48.33128 | 11.41015 | 33039 ft | 467 kts | 135° |
| 2026-05-07 18:20 | 48.28728 | 11.48213 | 33043 ft | 468 kts | 135° |
| 2026-05-07 18:20 | 48.24316 | 11.55407 | 33044 ft | 468 kts | 135° |
| 2026-05-07 18:21 | 48.19896 | 11.62591 | 33048 ft | 468 kts | 135° |
| 2026-05-07 18:21 | 48.15474 | 11.69748 | 33040 ft | 468 kts | 135° |
| 2026-05-07 18:22 | 48.11048 | 11.76891 | 33038 ft | 468 kts | 135° |
| 2026-05-07 18:22 | 48.06616 | 11.84031 | 33045 ft | 468 kts | 135° |
| 2026-05-07 18:23 | 48.02177 | 11.91160 | 33026 ft | 468 kts | 135° |
| 2026-05-07 18:23 | 47.97759 | 11.98236 | 33026 ft | 469 kts | 136° |
| 2026-05-07 18:24 | 47.93306 | 12.05349 | 33025 ft | 469 kts | 136° |
| 2026-05-07 18:24 | 47.88844 | 12.12458 | 33031 ft | 470 kts | 136° |
| 2026-05-07 18:25 | 47.85098 | 12.18418 | 33042 ft | 470 kts | 136° |
| 2026-05-07 18:25 | 47.80622 | 12.25515 | 33042 ft | 470 kts | 136° |
| 2026-05-07 18:26 | 47.76148 | 12.32601 | 33025 ft | 470 kts | 136° |
| 2026-05-07 18:26 | 47.71666 | 12.39679 | 33028 ft | 470 kts | 136° |
| 2026-05-07 18:27 | 47.67161 | 12.46743 | 33040 ft | 471 kts | 136° |
| 2026-05-07 18:27 | 47.62629 | 12.53669 | 33042 ft | 469 kts | 142° |
| 2026-05-07 18:28 | 47.57433 | 12.59547 | 33043 ft | 466 kts | 147° |
| 2026-05-07 18:28 | 47.52242 | 12.65214 | 33020 ft | 466 kts | 147° |
| 2026-05-07 18:29 | 47.47008 | 12.70901 | 33034 ft | 467 kts | 148° |
| 2026-05-07 18:29 | 47.41760 | 12.76577 | 33041 ft | 467 kts | 148° |
| 2026-05-07 18:30 | 47.36512 | 12.82246 | 33048 ft | 468 kts | 148° |
| 2026-05-07 18:30 | 47.31258 | 12.87919 | 33053 ft | 468 kts | 148° |
| 2026-05-07 18:31 | 47.25999 | 12.93584 | 33033 ft | 468 kts | 148° |
| 2026-05-07 18:31 | 47.20730 | 12.99234 | 33035 ft | 469 kts | 148° |
| 2026-05-07 18:32 | 47.15481 | 13.04844 | 33042 ft | 469 kts | 148° |
| 2026-05-07 18:32 | 47.10201 | 13.10481 | 33043 ft | 470 kts | 148° |
| 2026-05-07 18:33 | 47.04916 | 13.16110 | 33049 ft | 470 kts | 148° |
| 2026-05-07 18:33 | 46.99622 | 13.21741 | 33026 ft | 470 kts | 149° |
| 2026-05-07 18:34 | 46.94321 | 13.27363 | 33028 ft | 471 kts | 149° |
| 2026-05-07 18:34 | 46.89013 | 13.32973 | 33038 ft | 471 kts | 149° |
| 2026-05-07 18:35 | 46.83700 | 13.38570 | 33037 ft | 471 kts | 149° |
| 2026-05-07 18:35 | 46.78382 | 13.44157 | 33010 ft | 471 kts | 150° |
| 2026-05-07 18:36 | 46.73098 | 13.49709 | 33008 ft | 472 kts | 149° |
| 2026-05-07 18:36 | 46.67775 | 13.55298 | 33015 ft | 472 kts | 150° |
| 2026-05-07 18:37 | 46.62433 | 13.60865 | 33022 ft | 472 kts | 150° |
| 2026-05-07 18:37 | 46.57089 | 13.66415 | 33033 ft | 472 kts | 150° |
| 2026-05-07 18:38 | 46.51737 | 13.71976 | 33018 ft | 473 kts | 150° |
| 2026-05-07 18:38 | 46.46392 | 13.77565 | 33023 ft | 474 kts | 150° |
| 2026-05-07 18:39 | 46.41045 | 13.83180 | 33022 ft | 474 kts | 150° |
| 2026-05-07 18:39 | 46.35693 | 13.88771 | 33034 ft | 474 kts | 151° |
| 2026-05-07 18:40 | 46.30338 | 13.94331 | 33007 ft | 474 kts | 151° |
| 2026-05-07 18:40 | 46.24980 | 13.99874 | 33016 ft | 474 kts | 151° |
| 2026-05-07 18:41 | 46.19616 | 14.05421 | 33019 ft | 474 kts | 151° |
| 2026-05-07 18:41 | 46.14251 | 14.10971 | 33004 ft | 474 kts | 151° |
| 2026-05-07 18:42 | 46.08884 | 14.16507 | 33014 ft | 473 kts | 151° |
| 2026-05-07 18:42 | 46.03560 | 14.21975 | 33023 ft | 473 kts | 152° |
| 2026-05-07 18:43 | 45.98207 | 14.27453 | 33028 ft | 472 kts | 152° |
| 2026-05-07 18:43 | 45.92850 | 14.32923 | 33040 ft | 472 kts | 152° |
| 2026-05-07 18:44 | 45.87504 | 14.38374 | 33028 ft | 471 kts | 151° |
| 2026-05-07 18:44 | 45.82170 | 14.43802 | 33040 ft | 470 kts | 151° |
| 2026-05-07 18:45 | 45.76839 | 14.49213 | 33040 ft | 469 kts | 152° |
| 2026-05-07 18:45 | 45.71505 | 14.54613 | 33048 ft | 469 kts | 152° |
| 2026-05-07 18:46 | 45.66173 | 14.59999 | 33044 ft | 469 kts | 152° |
| 2026-05-07 18:46 | 45.60844 | 14.65371 | 33009 ft | 468 kts | 152° |
| 2026-05-07 18:47 | 45.55520 | 14.70716 | 33029 ft | 467 kts | 152° |
| 2026-05-07 18:47 | 45.50109 | 14.75761 | 33043 ft | 462 kts | 157° |
| 2026-05-07 18:48 | 45.44576 | 14.80303 | 33056 ft | 462 kts | 157° |
| 2026-05-07 18:48 | 45.39025 | 14.84858 | 33037 ft | 460 kts | 157° |
| 2026-05-07 18:49 | 45.33474 | 14.89396 | 33013 ft | 460 kts | 157° |
| 2026-05-07 18:49 | 45.27921 | 14.93927 | 33024 ft | 460 kts | 157° |
| 2026-05-07 18:50 | 45.22366 | 14.98458 | 33025 ft | 460 kts | 157° |
| 2026-05-07 18:50 | 45.16810 | 15.02990 | 33009 ft | 461 kts | 157° |
| 2026-05-07 18:51 | 45.11249 | 15.07494 | 33011 ft | 460 kts | 158° |
| 2026-05-07 18:51 | 45.05682 | 15.11995 | 33021 ft | 461 kts | 158° |
| 2026-05-07 18:52 | 45.00149 | 15.16456 | 33027 ft | 460 kts | 158° |
| 2026-05-07 18:52 | 44.94584 | 15.20943 | 33021 ft | 460 kts | 158° |
| 2026-05-07 18:53 | 44.89014 | 15.25417 | 33024 ft | 460 kts | 158° |
| 2026-05-07 18:53 | 44.83248 | 15.28852 | 32620 ft | 442 kts | 174° |
| 2026-05-07 18:53 | 44.80253 | 15.29826 | 31722 ft | 443 kts | 175° |
| 2026-05-07 18:54 | 44.77230 | 15.30766 | 30834 ft | 445 kts | 175° |
| 2026-05-07 18:54 | 44.74197 | 15.31695 | 30321 ft | 448 kts | 175° |
| 2026-05-07 18:54 | 44.71142 | 15.32615 | 29750 ft | 448 kts | 175° |
| 2026-05-07 18:54 | 44.68095 | 15.33522 | 29187 ft | 445 kts | 175° |
| 2026-05-07 18:55 | 44.65078 | 15.34415 | 28641 ft | 441 kts | 175° |
| 2026-05-07 18:55 | 44.62084 | 15.35298 | 28103 ft | 437 kts | 175° |
| 2026-05-07 18:55 | 44.59124 | 15.36164 | 27572 ft | 433 kts | 175° |
| 2026-05-07 18:55 | 44.56185 | 15.37033 | 27052 ft | 431 kts | 173° |
| 2026-05-07 18:56 | 44.53337 | 15.38397 | 26535 ft | 433 kts | 165° |
| 2026-05-07 18:56 | 44.50539 | 15.39923 | 26031 ft | 430 kts | 165° |
| 2026-05-07 18:56 | 44.47762 | 15.41443 | 25549 ft | 426 kts | 165° |
| 2026-05-07 18:56 | 44.45011 | 15.42951 | 25061 ft | 423 kts | 165° |
| 2026-05-07 18:57 | 44.42288 | 15.44439 | 24574 ft | 418 kts | 165° |
| 2026-05-07 18:57 | 44.39627 | 15.45888 | 24083 ft | 413 kts | 165° |
| 2026-05-07 18:57 | 44.36959 | 15.47336 | 23567 ft | 409 kts | 165° |
| 2026-05-07 18:57 | 44.34317 | 15.48765 | 22995 ft | 406 kts | 165° |
| 2026-05-07 18:58 | 44.31695 | 15.50184 | 22427 ft | 402 kts | 165° |
| 2026-05-07 18:58 | 44.29100 | 15.51587 | 21915 ft | 398 kts | 165° |
| 2026-05-07 18:58 | 44.26526 | 15.52977 | 21428 ft | 395 kts | 164° |
| 2026-05-07 18:58 | 44.23971 | 15.54356 | 20933 ft | 392 kts | 164° |
| 2026-05-07 18:59 | 44.21435 | 15.55725 | 20437 ft | 389 kts | 164° |
| 2026-05-07 18:59 | 44.18912 | 15.57083 | 19944 ft | 387 kts | 164° |
| 2026-05-07 18:59 | 44.16407 | 15.58433 | 19459 ft | 384 kts | 163° |
| 2026-05-07 18:59 | 44.13920 | 15.59771 | 18979 ft | 382 kts | 163° |
| 2026-05-07 19:00 | 44.11447 | 15.61099 | 18487 ft | 380 kts | 163° |
| 2026-05-07 19:00 | 44.08989 | 15.62419 | 17974 ft | 377 kts | 163° |
| 2026-05-07 19:00 | 44.06583 | 15.63711 | 17464 ft | 374 kts | 163° |
| 2026-05-07 19:00 | 44.04164 | 15.65010 | 16974 ft | 371 kts | 163° |
| 2026-05-07 19:01 | 44.01765 | 15.66299 | 16490 ft | 368 kts | 163° |
| 2026-05-07 19:01 | 43.99380 | 15.67579 | 16028 ft | 366 kts | 163° |
| 2026-05-07 19:01 | 43.97023 | 15.68843 | 15459 ft | 359 kts | 163° |
| 2026-05-07 19:01 | 43.94697 | 15.70090 | 14644 ft | 359 kts | 163° |
| 2026-05-07 19:02 | 43.92375 | 15.71332 | 14218 ft | 356 kts | 163° |
| 2026-05-07 19:02 | 43.90073 | 15.72560 | 13769 ft | 353 kts | 162° |
| 2026-05-07 19:02 | 43.87782 | 15.73779 | 13243 ft | 351 kts | 162° |
| 2026-05-07 19:02 | 43.85508 | 15.74985 | 12746 ft | 349 kts | 162° |
| 2026-05-07 19:03 | 43.83260 | 15.76177 | 12410 ft | 338 kts | 162° |
| 2026-05-07 19:03 | 43.81149 | 15.77306 | 12273 ft | 313 kts | 162° |
| 2026-05-07 19:03 | 43.79173 | 15.78367 | 11921 ft | 299 kts | 162° |
| 2026-05-07 19:03 | 43.77250 | 15.79392 | 11351 ft | 294 kts | 162° |
| 2026-05-07 19:04 | 43.75354 | 15.80397 | 10760 ft | 290 kts | 162° |
| 2026-05-07 19:04 | 43.73473 | 15.81392 | 10265 ft | 289 kts | 162° |
| 2026-05-07 19:04 | 43.71626 | 15.82370 | 9933 ft | 287 kts | 162° |
| 2026-05-07 19:04 | 43.69765 | 15.83354 | 9554 ft | 285 kts | 162° |
| 2026-05-07 19:05 | 43.67919 | 15.84330 | 9169 ft | 284 kts | 162° |
| 2026-05-07 19:05 | 43.66082 | 15.85301 | 8796 ft | 281 kts | 162° |
| 2026-05-07 19:05 | 43.64259 | 15.86262 | 8404 ft | 280 kts | 162° |
| 2026-05-07 19:05 | 43.62446 | 15.87219 | 8021 ft | 278 kts | 162° |
| 2026-05-07 19:06 | 43.60649 | 15.88170 | 7653 ft | 276 kts | 162° |
| 2026-05-07 19:06 | 43.57093 | 15.90042 | 6897 ft | 272 kts | 162° |
| 2026-05-07 19:06 | 43.55328 | 15.90969 | 6491 ft | 271 kts | 161° |
| 2026-05-07 19:07 | 43.53566 | 15.91892 | 6102 ft | 269 kts | 162° |
| 2026-05-07 19:07 | 43.51826 | 15.92804 | 5717 ft | 266 kts | 162° |
| 2026-05-07 19:07 | 43.50102 | 15.93712 | 5333 ft | 264 kts | 162° |
| 2026-05-07 19:07 | 43.48459 | 15.94817 | 4937 ft | 264 kts | 148° |
| 2026-05-07 19:08 | 43.46989 | 15.96336 | 4539 ft | 263 kts | 143° |
| 2026-05-07 19:08 | 43.45546 | 15.97870 | 4159 ft | 261 kts | 143° |
| 2026-05-07 19:08 | 43.44116 | 15.99379 | 3784 ft | 258 kts | 143° |
| 2026-05-07 19:08 | 43.42778 | 16.00963 | 3515 ft | 251 kts | 132° |
| 2026-05-07 19:09 | 43.41895 | 16.02966 | 3273 ft | 241 kts | 112° |
| 2026-05-07 19:09 | 43.41563 | 16.05182 | 3017 ft | 236 kts | 94° |
| 2026-05-07 19:09 | 43.41774 | 16.07384 | 2857 ft | 229 kts | 76° |
| 2026-05-07 19:09 | 43.42449 | 16.09296 | 2826 ft | 216 kts | 58° |
| 2026-05-07 19:10 | 43.43333 | 16.10885 | 2832 ft | 201 kts | 56° |
| 2026-05-07 19:10 | 43.44159 | 16.12357 | 2841 ft | 191 kts | 57° |
| 2026-05-07 19:10 | 43.44966 | 16.13801 | 2702 ft | 188 kts | 57° |
| 2026-05-07 19:10 | 43.45760 | 16.15221 | 2487 ft | 187 kts | 56° |
| 2026-05-07 19:11 | 43.46547 | 16.16627 | 2252 ft | 184 kts | 58° |
| 2026-05-07 19:11 | 43.47318 | 16.18006 | 2013 ft | 180 kts | 59° |
| 2026-05-07 19:11 | 43.48069 | 16.19349 | 1771 ft | 177 kts | 58° |
| 2026-05-07 19:11 | 43.48795 | 16.20648 | 1534 ft | 165 kts | 56° |
| 2026-05-07 19:12 | 43.49476 | 16.21867 | 1314 ft | 154 kts | 54° |
| 2026-05-07 19:12 | 43.50101 | 16.22986 | 1124 ft | 142 kts | 53° |
| 2026-05-07 19:12 | 43.50694 | 16.24048 | 893 ft | 139 kts | 52° |
| 2026-05-07 19:12 | 43.51079 | 16.24742 | 781 ft | 137 kts | 52° |
| 2026-05-07 19:13 | 43.51663 | 16.25786 | 601 ft | 137 kts | 52° |
| 2026-05-07 19:13 | 43.52241 | 16.26826 | 399 ft | 136 kts | 51° |
| 2026-05-07 19:13 | 43.52820 | 16.27864 | 219 ft | 136 kts | 50° |
| 2026-05-07 19:13 | 43.53393 | 16.28891 | 82 ft | 132 kts | 51° |
| 2026-05-07 19:14 | 43.53814 | 16.29645 | 77 ft | 57 kts | 52° |
| 2026-05-07 19:14 | 43.54001 | 16.29986 | 68 ft | 29 kts | 52° |
| 2026-05-07 19:14 | 43.54046 | 16.30101 | 65 ft | 6 kts | 128° |
| 2026-05-07 19:14 | 43.53999 | 16.30097 | 61 ft | 6 kts | 195° |
| 2026-05-07 19:15 | 43.53976 | 16.30087 | 59 ft | 2 kts | 197° |
| 2026-05-07 19:15 | 43.53972 | 16.30086 | 57 ft | 2 kts | 197° |
| 2026-05-07 19:15 | 43.53936 | 16.30070 | 66 ft | 9 kts | 197° |
| 2026-05-07 19:15 | 43.53874 | 16.30003 | 66 ft | 12 kts | 234° |
| 2026-05-07 19:16 | 43.53827 | 16.29917 | 68 ft | 10 kts | 233° |
| 2026-05-07 19:16 | 43.53794 | 16.29861 | 66 ft | 3 kts | 201° |
| 2026-05-07 19:16 | 43.53784 | 16.29875 | 62 ft | 2 kts | 120° |
| 2026-05-07 19:16 | 43.53777 | 16.29896 | 64 ft | 2 kts | 115° |
| 2026-05-07 19:17 | 43.53771 | 16.29914 | 64 ft | 2 kts | 115° |
| 2026-05-07 19:17 | 43.53766 | 16.29929 | 67 ft | 1 kts | 115° |
| 2026-05-07 19:17 | 43.53763 | 16.29937 | 68 ft | 1 kts | 115° |
| 2026-05-07 19:17 | 43.53762 | 16.29939 | 68 ft | 0 kts | 115° |